< < Back
Terminal Aerodrome Forecast


Current Version              Previous Versions:   1  2  3  4  5  6  7  8  9  

Terminal Aerodrome Forecast

377
FTUS42 KJAX 230500 RRA
TAFGNV
TAF
KGNV 230543Z 2306/2406 28004KT P6SM FEW250
     FM232100 VRB05KT P6SM VCTS SCT035CB BKN050
     FM240200 VRB03KT P6SM SCT030 BKN100=

Latest METAR

356
SAUS70 KWBC 231500 RRH
MTRGNV
METAR KGNV 231453Z 31007KT 10SM CLR 32/24 A2999 RMK AO2 SLP152 T03170239
51002


USA.gov is the U.S. government's official web portal to all federal, state and local government web resources and services.